Mill Grove, Indiana
Current Conditions -  °F | °C
As of 10:53 AM on Wednesday 22 Oct 2014 (Local Time) from KMIE Reporting Station
Overcast Overcast  
Wind Chill: 42°   Ceiling: 2000
Heat Index: 46°   Visibility: 10mi
Dew Point: 39°   Wind: 7mph
Humidity: 76%   Direction: 20°NNE
Pressure: 30.33"   Gusts: NA
Location:  40.4568°N, 85.3505°W
Report Text: KMIE 221453Z 02006KT 10SM OVC020 08/04 A3033 RMK AO2 SLP269 T00780039 51013
Loading
Personal Weather Stations






























Interactive Weather Map
Tropical Storm Tracking
New forecast layout! Learn more

10-Day Weather Forecast

Advertisements
Track Severe Weather on mobile